EZY7366 EHAM-LEPA
Flight info
| Callsign | EZY7366 |
|---|---|
| Flight time | 2h 14m |
| Altitude | 23000 |
| Route | WOODY N872 CIV/N0450F370 DCT KOVIN/N0446F330 DCT DUCRA UM728 RESMI UN857 DISAK/N0451F390 DCT DIRMO DCT VALKU DCT ATSUP DCT MINSO DCT DEGOL DCT PPG DCT ALBER P84 LORES |
| Aircraft | A20N/M-SDE2E3FGHIRWXY/LB1 |
Departure
| Time | 2026-05-07 19:08 |
|---|---|
| Airport | Amsterdam Airport Schiphol (EHAM) |
Arrival
| Time | 2026-05-07 21:23 |
|---|---|
| Airport | Palma de Mallorca Airport (LEPA) |
| Time | Latitude | Longitude | Altitude | Speed | Heading |
|---|---|---|---|---|---|
| 2026-05-07 18:35 | 52.31049 | 4.75512 | 1 ft | 0 kts | 150° |
| 2026-05-07 18:53 | 52.31049 | 4.75511 | 1 ft | 2 kts | 150° |
| 2026-05-07 18:53 | 52.31063 | 4.75497 | 1 ft | 2 kts | 144° |
| 2026-05-07 18:53 | 52.31075 | 4.75481 | 2 ft | 2 kts | 138° |
| 2026-05-07 18:54 | 52.31087 | 4.75461 | 4 ft | 2 kts | 129° |
| 2026-05-07 18:54 | 52.31096 | 4.75439 | 3 ft | 2 kts | 115° |
| 2026-05-07 18:54 | 52.31101 | 4.75413 | 4 ft | 2 kts | 97° |
| 2026-05-07 18:54 | 52.31100 | 4.75387 | 5 ft | 2 kts | 78° |
| 2026-05-07 18:55 | 52.31095 | 4.75361 | 5 ft | 2 kts | 62° |
| 2026-05-07 18:55 | 52.31090 | 4.75348 | 6 ft | 1 kts | 54° |
| 2026-05-07 18:55 | 52.31089 | 4.75346 | 3 ft | 0 kts | 54° |
| 2026-05-07 18:58 | 52.31091 | 4.75351 | 5 ft | 5 kts | 54° |
| 2026-05-07 18:58 | 52.31115 | 4.75398 | 5 ft | 5 kts | 44° |
| 2026-05-07 18:58 | 52.31136 | 4.75422 | 4 ft | 3 kts | 29° |
| 2026-05-07 18:59 | 52.31143 | 4.75427 | 5 ft | 0 kts | 21° |
| 2026-05-07 18:59 | 52.31161 | 4.75435 | 5 ft | 14 kts | 11° |
| 2026-05-07 18:59 | 52.31248 | 4.75430 | 9 ft | 11 kts | 355° |
| 2026-05-07 18:59 | 52.31320 | 4.75420 | 10 ft | 10 kts | 356° |
| 2026-05-07 19:00 | 52.31384 | 4.75414 | 11 ft | 8 kts | 356° |
| 2026-05-07 19:00 | 52.31419 | 4.75382 | 13 ft | 4 kts | 299° |
| 2026-05-07 19:00 | 52.31423 | 4.75354 | 13 ft | 1 kts | 275° |
| 2026-05-07 19:00 | 52.31416 | 4.75253 | 13 ft | 13 kts | 273° |
| 2026-05-07 19:01 | 52.31416 | 4.75082 | 10 ft | 15 kts | 266° |
| 2026-05-07 19:01 | 52.31412 | 4.74950 | 15 ft | 10 kts | 267° |
| 2026-05-07 19:01 | 52.31409 | 4.74845 | 16 ft | 8 kts | 267° |
| 2026-05-07 19:01 | 52.31406 | 4.74764 | 17 ft | 6 kts | 268° |
| 2026-05-07 19:02 | 52.31413 | 4.74698 | 18 ft | 5 kts | 296° |
| 2026-05-07 19:02 | 52.31455 | 4.74662 | 18 ft | 15 kts | 336° |
| 2026-05-07 19:02 | 52.31482 | 4.74526 | 21 ft | 13 kts | 267° |
| 2026-05-07 19:02 | 52.31477 | 4.74375 | 18 ft | 15 kts | 266° |
| 2026-05-07 19:03 | 52.31460 | 4.74207 | 20 ft | 14 kts | 238° |
| 2026-05-07 19:03 | 52.31388 | 4.74135 | 19 ft | 12 kts | 186° |
| 2026-05-07 19:03 | 52.31295 | 4.74128 | 17 ft | 18 kts | 183° |
| 2026-05-07 19:03 | 52.31165 | 4.74115 | 15 ft | 19 kts | 185° |
| 2026-05-07 19:04 | 52.31030 | 4.74105 | 14 ft | 20 kts | 184° |
| 2026-05-07 19:04 | 52.30902 | 4.74091 | 15 ft | 16 kts | 183° |
| 2026-05-07 19:04 | 52.30790 | 4.74084 | 14 ft | 16 kts | 187° |
| 2026-05-07 19:04 | 52.30696 | 4.74071 | 16 ft | 13 kts | 182° |
| 2026-05-07 19:05 | 52.30618 | 4.74066 | 18 ft | 10 kts | 183° |
| 2026-05-07 19:05 | 52.30549 | 4.74060 | 18 ft | 10 kts | 183° |
| 2026-05-07 19:05 | 52.30477 | 4.74055 | 17 ft | 10 kts | 182° |
| 2026-05-07 19:05 | 52.30409 | 4.74047 | 18 ft | 9 kts | 184° |
| 2026-05-07 19:06 | 52.30355 | 4.74036 | 19 ft | 7 kts | 189° |
| 2026-05-07 19:06 | 52.30196 | 4.73862 | 18 ft | 10 kts | 245° |
| 2026-05-07 19:06 | 52.30200 | 4.73769 | 21 ft | 8 kts | 304° |
| 2026-05-07 19:07 | 52.30258 | 4.73741 | 16 ft | 10 kts | 2° |
| 2026-05-07 19:07 | 52.30267 | 4.73741 | 16 ft | 0 kts | 2° |
| 2026-05-07 19:07 | 52.30480 | 4.73759 | 18 ft | 69 kts | 4° |
| 2026-05-07 19:08 | 52.31225 | 4.73830 | 19 ft | 146 kts | 3° |
| 2026-05-07 19:08 | 52.32415 | 4.73927 | 241 ft | 186 kts | 5° |
| 2026-05-07 19:08 | 52.33818 | 4.74063 | 509 ft | 221 kts | 6° |
| 2026-05-07 19:08 | 52.35465 | 4.74598 | 738 ft | 263 kts | 25° |
| 2026-05-07 19:09 | 52.37166 | 4.76196 | 999 ft | 302 kts | 38° |
| 2026-05-07 19:09 | 52.38454 | 4.79052 | 1535 ft | 320 kts | 69° |
| 2026-05-07 19:09 | 52.38722 | 4.82521 | 2547 ft | 309 kts | 96° |
| 2026-05-07 19:09 | 52.37957 | 4.85702 | 3566 ft | 300 kts | 127° |
| 2026-05-07 19:10 | 52.36360 | 4.87750 | 4565 ft | 291 kts | 159° |
| 2026-05-07 19:10 | 52.34388 | 4.88144 | 5401 ft | 289 kts | 190° |
| 2026-05-07 19:10 | 52.32538 | 4.87047 | 6449 ft | 276 kts | 203° |
| 2026-05-07 19:10 | 52.30739 | 4.86135 | 7469 ft | 269 kts | 194° |
| 2026-05-07 19:11 | 52.28898 | 4.85549 | 8276 ft | 270 kts | 189° |
| 2026-05-07 19:11 | 52.27023 | 4.85191 | 9015 ft | 274 kts | 185° |
| 2026-05-07 19:11 | 52.25092 | 4.84972 | 9684 ft | 280 kts | 183° |
| 2026-05-07 19:11 | 52.23119 | 4.84837 | 10296 ft | 288 kts | 182° |
| 2026-05-07 19:12 | 52.21085 | 4.84743 | 10603 ft | 305 kts | 182° |
| 2026-05-07 19:12 | 52.18895 | 4.84670 | 10880 ft | 323 kts | 182° |
| 2026-05-07 19:12 | 52.16581 | 4.84609 | 11164 ft | 340 kts | 182° |
| 2026-05-07 19:12 | 52.14187 | 4.84553 | 11648 ft | 349 kts | 181° |
| 2026-05-07 19:13 | 52.11745 | 4.84499 | 12354 ft | 353 kts | 182° |
| 2026-05-07 19:13 | 52.09276 | 4.84447 | 13139 ft | 357 kts | 181° |
| 2026-05-07 19:13 | 52.06757 | 4.84394 | 13884 ft | 362 kts | 182° |
| 2026-05-07 19:13 | 52.04234 | 4.84307 | 14565 ft | 366 kts | 184° |
| 2026-05-07 19:14 | 52.01699 | 4.83668 | 15254 ft | 368 kts | 197° |
| 2026-05-07 19:14 | 51.99298 | 4.82182 | 15970 ft | 371 kts | 205° |
| 2026-05-07 19:14 | 51.96962 | 4.80382 | 16679 ft | 374 kts | 207° |
| 2026-05-07 19:14 | 51.94611 | 4.78513 | 17356 ft | 378 kts | 207° |
| 2026-05-07 19:15 | 51.92239 | 4.76631 | 18024 ft | 382 kts | 207° |
| 2026-05-07 19:15 | 51.89833 | 4.74733 | 18642 ft | 386 kts | 207° |
| 2026-05-07 19:15 | 51.87412 | 4.72832 | 19231 ft | 389 kts | 207° |
| 2026-05-07 19:15 | 51.84989 | 4.70936 | 19822 ft | 391 kts | 207° |
| 2026-05-07 19:16 | 51.82523 | 4.69011 | 20426 ft | 394 kts | 207° |
| 2026-05-07 19:16 | 51.80035 | 4.67072 | 21031 ft | 397 kts | 207° |
| 2026-05-07 19:16 | 51.77538 | 4.65129 | 21610 ft | 399 kts | 207° |
| 2026-05-07 19:16 | 51.75057 | 4.63202 | 22192 ft | 402 kts | 207° |
| 2026-05-07 19:17 | 51.72527 | 4.61239 | 22776 ft | 405 kts | 207° |
| 2026-05-07 19:17 | 51.69979 | 4.59264 | 23337 ft | 408 kts | 207° |
| 2026-05-07 19:17 | 51.67410 | 4.57276 | 23857 ft | 410 kts | 207° |
| 2026-05-07 19:17 | 51.64825 | 4.55278 | 24322 ft | 413 kts | 207° |
| 2026-05-07 19:18 | 51.62222 | 4.53269 | 24769 ft | 416 kts | 207° |
| 2026-05-07 19:18 | 51.59607 | 4.51253 | 25221 ft | 418 kts | 207° |
| 2026-05-07 19:18 | 51.56972 | 4.49224 | 25657 ft | 421 kts | 207° |
| 2026-05-07 19:18 | 51.54325 | 4.47189 | 26083 ft | 423 kts | 207° |
| 2026-05-07 19:19 | 51.51661 | 4.45143 | 26507 ft | 426 kts | 207° |
| 2026-05-07 19:19 | 51.48981 | 4.43087 | 26917 ft | 428 kts | 207° |
| 2026-05-07 19:19 | 51.46285 | 4.41023 | 27323 ft | 430 kts | 207° |
| 2026-05-07 19:19 | 51.43575 | 4.38950 | 27710 ft | 433 kts | 207° |
| 2026-05-07 19:20 | 51.40847 | 4.36866 | 28093 ft | 435 kts | 207° |
| 2026-05-07 19:20 | 51.38101 | 4.34772 | 28500 ft | 437 kts | 207° |
| 2026-05-07 19:20 | 51.35338 | 4.32669 | 28871 ft | 440 kts | 207° |
| 2026-05-07 19:20 | 51.32601 | 4.30591 | 29347 ft | 439 kts | 207° |
| 2026-05-07 19:21 | 51.29840 | 4.28496 | 29905 ft | 437 kts | 207° |
| 2026-05-07 19:21 | 51.27097 | 4.26415 | 30371 ft | 436 kts | 207° |
| 2026-05-07 19:21 | 51.24352 | 4.24334 | 30766 ft | 435 kts | 207° |
| 2026-05-07 19:21 | 51.21619 | 4.22264 | 31162 ft | 434 kts | 207° |
| 2026-05-07 19:22 | 51.18892 | 4.20200 | 31548 ft | 434 kts | 207° |
| 2026-05-07 19:22 | 51.16111 | 4.18298 | 31918 ft | 435 kts | 203° |
| 2026-05-07 19:22 | 51.13272 | 4.16622 | 32287 ft | 434 kts | 202° |
| 2026-05-07 19:22 | 51.10425 | 4.15011 | 32653 ft | 434 kts | 202° |
| 2026-05-07 19:23 | 51.07572 | 4.13438 | 33008 ft | 433 kts | 201° |
| 2026-05-07 19:23 | 51.04718 | 4.11885 | 33357 ft | 433 kts | 201° |
| 2026-05-07 19:23 | 51.01902 | 4.10359 | 33694 ft | 432 kts | 201° |
| 2026-05-07 19:23 | 50.99053 | 4.08815 | 34027 ft | 432 kts | 201° |
| 2026-05-07 19:24 | 50.96207 | 4.07271 | 34310 ft | 431 kts | 201° |
| 2026-05-07 19:24 | 50.93370 | 4.05729 | 34567 ft | 431 kts | 201° |
| 2026-05-07 19:24 | 50.90532 | 4.04187 | 34802 ft | 431 kts | 201° |
| 2026-05-07 19:24 | 50.87696 | 4.02621 | 35015 ft | 431 kts | 202° |
| 2026-05-07 19:25 | 50.82073 | 3.99145 | 35077 ft | 433 kts | 204° |
| 2026-05-07 19:25 | 50.76506 | 3.95515 | 35078 ft | 432 kts | 205° |
| 2026-05-07 19:26 | 50.70942 | 3.91908 | 35081 ft | 432 kts | 205° |
| 2026-05-07 19:26 | 50.65370 | 3.88342 | 35074 ft | 432 kts | 204° |
| 2026-05-07 19:27 | 50.59784 | 3.84794 | 35081 ft | 432 kts | 204° |
| 2026-05-07 19:27 | 50.54231 | 3.81177 | 35077 ft | 432 kts | 205° |
| 2026-05-07 19:28 | 50.48720 | 3.77409 | 35073 ft | 431 kts | 206° |
| 2026-05-07 19:28 | 50.43221 | 3.73632 | 35072 ft | 431 kts | 206° |
| 2026-05-07 19:29 | 50.37744 | 3.69897 | 35072 ft | 431 kts | 206° |
| 2026-05-07 19:29 | 50.32230 | 3.66159 | 35070 ft | 431 kts | 205° |
| 2026-05-07 19:30 | 50.27653 | 3.63068 | 35072 ft | 430 kts | 205° |
| 2026-05-07 19:30 | 50.22142 | 3.59353 | 35066 ft | 430 kts | 205° |
| 2026-05-07 19:31 | 50.16640 | 3.55653 | 35064 ft | 430 kts | 205° |
| 2026-05-07 19:31 | 50.11136 | 3.51961 | 35063 ft | 430 kts | 205° |
| 2026-05-07 19:32 | 50.05632 | 3.48278 | 35063 ft | 430 kts | 205° |
| 2026-05-07 19:32 | 50.00131 | 3.44606 | 35058 ft | 430 kts | 205° |
| 2026-05-07 19:33 | 49.94626 | 3.40941 | 35062 ft | 430 kts | 205° |
| 2026-05-07 19:33 | 49.89119 | 3.37285 | 35055 ft | 430 kts | 205° |
| 2026-05-07 19:34 | 49.83615 | 3.33638 | 35056 ft | 430 kts | 205° |
| 2026-05-07 19:34 | 49.78145 | 3.30024 | 35056 ft | 430 kts | 205° |
| 2026-05-07 19:35 | 49.72639 | 3.26394 | 35059 ft | 430 kts | 205° |
| 2026-05-07 19:35 | 49.67131 | 3.22772 | 35054 ft | 430 kts | 205° |
| 2026-05-07 19:36 | 49.61628 | 3.19162 | 35053 ft | 430 kts | 205° |
| 2026-05-07 19:36 | 49.56114 | 3.15554 | 35058 ft | 430 kts | 205° |
| 2026-05-07 19:37 | 49.50611 | 3.11952 | 35059 ft | 429 kts | 206° |
| 2026-05-07 19:37 | 49.45483 | 3.07475 | 35058 ft | 427 kts | 214° |
| 2026-05-07 19:38 | 49.40498 | 3.02496 | 35055 ft | 426 kts | 215° |
| 2026-05-07 19:38 | 49.35557 | 2.97445 | 35061 ft | 426 kts | 215° |
| 2026-05-07 19:39 | 49.30613 | 2.92409 | 35059 ft | 426 kts | 215° |
| 2026-05-07 19:39 | 49.25667 | 2.87407 | 35054 ft | 426 kts | 215° |
| 2026-05-07 19:40 | 49.20702 | 2.82408 | 35059 ft | 426 kts | 215° |
| 2026-05-07 19:40 | 49.15736 | 2.77422 | 35052 ft | 427 kts | 215° |
| 2026-05-07 19:41 | 49.10808 | 2.72485 | 35050 ft | 426 kts | 215° |
| 2026-05-07 19:41 | 49.05833 | 2.67512 | 35048 ft | 427 kts | 215° |
| 2026-05-07 19:42 | 49.00869 | 2.62564 | 35050 ft | 426 kts | 214° |
| 2026-05-07 19:42 | 48.95913 | 2.57642 | 35048 ft | 425 kts | 214° |
| 2026-05-07 19:43 | 48.90963 | 2.52735 | 35048 ft | 424 kts | 214° |
| 2026-05-07 19:43 | 48.86014 | 2.47837 | 35047 ft | 424 kts | 214° |
| 2026-05-07 19:44 | 48.81063 | 2.42947 | 35047 ft | 424 kts | 214° |
| 2026-05-07 19:44 | 48.76104 | 2.38061 | 35048 ft | 424 kts | 214° |
| 2026-05-07 19:45 | 48.71183 | 2.33224 | 35048 ft | 424 kts | 214° |
| 2026-05-07 19:45 | 48.66217 | 2.28355 | 35048 ft | 424 kts | 214° |
| 2026-05-07 19:46 | 48.61256 | 2.23501 | 35042 ft | 424 kts | 214° |
| 2026-05-07 19:46 | 48.56029 | 2.19332 | 35039 ft | 426 kts | 202° |
| 2026-05-07 19:47 | 48.50320 | 2.16986 | 35023 ft | 429 kts | 195° |
| 2026-05-07 19:47 | 48.44474 | 2.15093 | 35023 ft | 430 kts | 194° |
| 2026-05-07 19:48 | 48.38621 | 2.13279 | 35019 ft | 429 kts | 194° |
| 2026-05-07 19:48 | 48.32781 | 2.11438 | 35018 ft | 428 kts | 195° |
| 2026-05-07 19:49 | 48.26833 | 2.10573 | 35017 ft | 433 kts | 180° |
| 2026-05-07 19:49 | 48.20809 | 2.11483 | 35019 ft | 436 kts | 176° |
| 2026-05-07 19:50 | 48.14843 | 2.12754 | 35017 ft | 436 kts | 176° |
| 2026-05-07 19:50 | 48.08808 | 2.13427 | 35017 ft | 434 kts | 180° |
| 2026-05-07 19:51 | 48.02776 | 2.13838 | 35018 ft | 434 kts | 181° |
| 2026-05-07 19:51 | 47.96731 | 2.14178 | 35016 ft | 434 kts | 181° |
| 2026-05-07 19:52 | 47.90697 | 2.14516 | 35020 ft | 434 kts | 181° |
| 2026-05-07 19:52 | 47.84648 | 2.14864 | 35016 ft | 434 kts | 181° |
| 2026-05-07 19:53 | 47.78612 | 2.15216 | 35002 ft | 434 kts | 181° |
| 2026-05-07 19:53 | 47.72577 | 2.15569 | 35003 ft | 434 kts | 181° |
| 2026-05-07 19:54 | 47.66584 | 2.15918 | 35005 ft | 434 kts | 181° |
| 2026-05-07 19:54 | 47.60552 | 2.16268 | 35000 ft | 434 kts | 181° |
| 2026-05-07 19:55 | 47.54524 | 2.16617 | 35003 ft | 433 kts | 181° |
| 2026-05-07 19:55 | 47.48497 | 2.16966 | 35004 ft | 432 kts | 181° |
| 2026-05-07 19:56 | 47.42478 | 2.17313 | 35001 ft | 433 kts | 181° |
| 2026-05-07 19:56 | 47.36465 | 2.17658 | 34986 ft | 433 kts | 181° |
| 2026-05-07 19:57 | 47.30451 | 2.18004 | 35004 ft | 431 kts | 181° |
| 2026-05-07 19:57 | 47.24492 | 2.18345 | 35004 ft | 431 kts | 181° |
| 2026-05-07 19:58 | 47.18499 | 2.18687 | 35007 ft | 431 kts | 181° |
| 2026-05-07 19:58 | 47.12498 | 2.19037 | 35005 ft | 431 kts | 180° |
| 2026-05-07 19:59 | 47.06579 | 2.20727 | 35008 ft | 437 kts | 166° |
| 2026-05-07 19:59 | 47.00859 | 2.23812 | 35007 ft | 440 kts | 162° |
| 2026-05-07 20:00 | 46.95208 | 2.27156 | 35014 ft | 440 kts | 162° |
| 2026-05-07 20:00 | 46.89537 | 2.30524 | 35010 ft | 439 kts | 162° |
| 2026-05-07 20:01 | 46.83861 | 2.33847 | 35006 ft | 439 kts | 162° |
| 2026-05-07 20:01 | 46.78185 | 2.37140 | 35007 ft | 439 kts | 162° |
| 2026-05-07 20:02 | 46.72509 | 2.40420 | 35007 ft | 439 kts | 162° |
| 2026-05-07 20:02 | 46.66824 | 2.43698 | 34997 ft | 439 kts | 162° |
| 2026-05-07 20:03 | 46.61162 | 2.46957 | 35009 ft | 440 kts | 162° |
| 2026-05-07 20:03 | 46.55451 | 2.50238 | 35010 ft | 440 kts | 162° |
| 2026-05-07 20:04 | 46.49746 | 2.53508 | 35008 ft | 440 kts | 162° |
| 2026-05-07 20:04 | 46.44056 | 2.56763 | 35014 ft | 439 kts | 162° |
| 2026-05-07 20:05 | 46.38401 | 2.59989 | 35014 ft | 439 kts | 162° |
| 2026-05-07 20:05 | 46.32705 | 2.63231 | 35009 ft | 439 kts | 162° |
| 2026-05-07 20:06 | 46.27013 | 2.66465 | 35016 ft | 439 kts | 162° |
| 2026-05-07 20:06 | 46.21324 | 2.69688 | 35014 ft | 439 kts | 162° |
| 2026-05-07 20:07 | 46.15636 | 2.72905 | 35018 ft | 439 kts | 162° |
| 2026-05-07 20:07 | 46.09945 | 2.76116 | 35011 ft | 438 kts | 162° |
| 2026-05-07 20:08 | 46.04299 | 2.79294 | 35015 ft | 439 kts | 162° |
| 2026-05-07 20:08 | 45.98600 | 2.82474 | 35011 ft | 439 kts | 163° |
| 2026-05-07 20:09 | 45.92867 | 2.85529 | 35001 ft | 439 kts | 163° |
| 2026-05-07 20:10 | 45.84262 | 2.90036 | 35002 ft | 439 kts | 163° |
| 2026-05-07 20:10 | 45.78523 | 2.93046 | 34998 ft | 438 kts | 163° |
| 2026-05-07 20:11 | 45.72647 | 2.94990 | 34992 ft | 430 kts | 179° |
| 2026-05-07 20:11 | 45.66700 | 2.95181 | 35017 ft | 429 kts | 183° |
| 2026-05-07 20:12 | 45.60724 | 2.95009 | 35018 ft | 429 kts | 184° |
| 2026-05-07 20:12 | 45.54746 | 2.94791 | 35017 ft | 429 kts | 184° |
| 2026-05-07 20:13 | 45.48815 | 2.94605 | 35020 ft | 429 kts | 184° |
| 2026-05-07 20:13 | 45.42834 | 2.94441 | 35015 ft | 429 kts | 184° |
| 2026-05-07 20:14 | 45.37876 | 2.94313 | 35016 ft | 429 kts | 184° |
| 2026-05-07 20:14 | 45.31904 | 2.94158 | 35015 ft | 429 kts | 184° |
| 2026-05-07 20:15 | 45.25938 | 2.94002 | 35014 ft | 428 kts | 184° |
| 2026-05-07 20:15 | 45.19972 | 2.93846 | 35014 ft | 428 kts | 184° |
| 2026-05-07 20:16 | 45.14043 | 2.93691 | 35009 ft | 428 kts | 184° |
| 2026-05-07 20:16 | 45.08068 | 2.93535 | 35007 ft | 428 kts | 184° |
| 2026-05-07 20:17 | 45.02105 | 2.93380 | 35009 ft | 428 kts | 184° |
| 2026-05-07 20:17 | 44.96189 | 2.93226 | 35016 ft | 428 kts | 184° |
| 2026-05-07 20:18 | 44.90233 | 2.93071 | 35011 ft | 427 kts | 184° |
| 2026-05-07 20:18 | 44.84280 | 2.92899 | 35009 ft | 427 kts | 184° |
| 2026-05-07 20:19 | 44.78337 | 2.92519 | 35008 ft | 427 kts | 186° |
| 2026-05-07 20:19 | 44.72408 | 2.92052 | 35007 ft | 427 kts | 186° |
| 2026-05-07 20:20 | 44.66509 | 2.91596 | 35002 ft | 427 kts | 185° |
| 2026-05-07 20:20 | 44.60573 | 2.91155 | 35007 ft | 427 kts | 185° |
| 2026-05-07 20:21 | 44.54634 | 2.90723 | 35004 ft | 426 kts | 185° |
| 2026-05-07 20:21 | 44.48711 | 2.90294 | 35004 ft | 426 kts | 185° |
| 2026-05-07 20:22 | 44.42787 | 2.89865 | 35006 ft | 426 kts | 185° |
| 2026-05-07 20:22 | 44.36863 | 2.89437 | 35002 ft | 425 kts | 186° |
| 2026-05-07 20:23 | 44.30960 | 2.89012 | 35005 ft | 424 kts | 186° |
| 2026-05-07 20:23 | 44.25112 | 2.88590 | 35006 ft | 423 kts | 186° |
| 2026-05-07 20:24 | 44.19229 | 2.88166 | 35007 ft | 423 kts | 186° |
| 2026-05-07 20:24 | 44.13361 | 2.87747 | 35007 ft | 420 kts | 186° |
| 2026-05-07 20:25 | 44.07531 | 2.87330 | 35006 ft | 419 kts | 186° |
| 2026-05-07 20:25 | 44.01702 | 2.86911 | 35005 ft | 419 kts | 186° |
| 2026-05-07 20:26 | 43.95878 | 2.86497 | 35008 ft | 416 kts | 187° |
| 2026-05-07 20:26 | 43.90123 | 2.86090 | 35005 ft | 413 kts | 187° |
| 2026-05-07 20:27 | 43.84421 | 2.85683 | 34999 ft | 413 kts | 187° |
| 2026-05-07 20:27 | 43.78686 | 2.85280 | 34998 ft | 413 kts | 187° |
| 2026-05-07 20:28 | 43.72945 | 2.85197 | 35005 ft | 411 kts | 184° |
| 2026-05-07 20:28 | 43.67229 | 2.85327 | 35003 ft | 411 kts | 184° |
| 2026-05-07 20:29 | 43.61508 | 2.85459 | 34997 ft | 411 kts | 184° |
| 2026-05-07 20:29 | 43.55799 | 2.85561 | 34998 ft | 409 kts | 184° |
| 2026-05-07 20:30 | 43.50165 | 2.85647 | 34995 ft | 407 kts | 185° |
| 2026-05-07 20:30 | 43.44497 | 2.85725 | 34993 ft | 407 kts | 185° |
| 2026-05-07 20:31 | 43.38826 | 2.85805 | 34979 ft | 407 kts | 184° |
| 2026-05-07 20:31 | 43.33190 | 2.85887 | 34987 ft | 406 kts | 184° |
| 2026-05-07 20:32 | 43.27536 | 2.85970 | 34978 ft | 406 kts | 184° |
| 2026-05-07 20:32 | 43.21885 | 2.86051 | 34975 ft | 406 kts | 184° |
| 2026-05-07 20:33 | 43.16223 | 2.86132 | 34981 ft | 406 kts | 184° |
| 2026-05-07 20:33 | 43.10603 | 2.86213 | 34977 ft | 407 kts | 184° |
| 2026-05-07 20:34 | 43.04935 | 2.86296 | 34979 ft | 407 kts | 184° |
| 2026-05-07 20:34 | 42.99267 | 2.86377 | 34970 ft | 407 kts | 184° |
| 2026-05-07 20:35 | 42.93604 | 2.86458 | 34972 ft | 407 kts | 184° |
| 2026-05-07 20:35 | 42.87972 | 2.86539 | 34970 ft | 407 kts | 184° |
| 2026-05-07 20:36 | 42.82309 | 2.86620 | 34995 ft | 407 kts | 184° |
| 2026-05-07 20:36 | 42.76641 | 2.86698 | 34987 ft | 407 kts | 185° |
| 2026-05-07 20:37 | 42.71009 | 2.86256 | 34991 ft | 405 kts | 188° |
| 2026-05-07 20:37 | 42.65383 | 2.85618 | 34996 ft | 405 kts | 189° |
| 2026-05-07 20:38 | 42.59815 | 2.84950 | 34986 ft | 405 kts | 189° |
| 2026-05-07 20:38 | 42.54186 | 2.84279 | 34989 ft | 405 kts | 188° |
| 2026-05-07 20:39 | 42.48571 | 2.83621 | 34982 ft | 405 kts | 188° |
| 2026-05-07 20:39 | 42.42993 | 2.82970 | 34974 ft | 405 kts | 188° |
| 2026-05-07 20:40 | 42.37383 | 2.82317 | 34981 ft | 405 kts | 188° |
| 2026-05-07 20:40 | 42.31765 | 2.81662 | 34982 ft | 405 kts | 188° |
| 2026-05-07 20:41 | 42.26144 | 2.81009 | 34982 ft | 405 kts | 188° |
| 2026-05-07 20:41 | 42.20522 | 2.80357 | 34982 ft | 405 kts | 188° |
| 2026-05-07 20:42 | 42.14902 | 2.79706 | 34997 ft | 405 kts | 188° |
| 2026-05-07 20:42 | 42.09281 | 2.79056 | 35005 ft | 406 kts | 188° |
| 2026-05-07 20:43 | 42.03650 | 2.78407 | 35016 ft | 406 kts | 188° |
| 2026-05-07 20:43 | 41.98060 | 2.77764 | 35020 ft | 406 kts | 188° |
| 2026-05-07 20:44 | 41.92419 | 2.77130 | 35019 ft | 406 kts | 188° |
| 2026-05-07 20:44 | 41.86764 | 2.76628 | 35021 ft | 408 kts | 187° |
| 2026-05-07 20:45 | 41.81097 | 2.76177 | 35021 ft | 408 kts | 187° |
| 2026-05-07 20:45 | 41.75424 | 2.75723 | 35014 ft | 408 kts | 187° |
| 2026-05-07 20:46 | 41.69786 | 2.75261 | 35007 ft | 408 kts | 187° |
| 2026-05-07 20:46 | 41.64133 | 2.74920 | 34804 ft | 403 kts | 185° |
| 2026-05-07 20:46 | 41.61332 | 2.74806 | 34563 ft | 402 kts | 185° |
| 2026-05-07 20:47 | 41.58544 | 2.74703 | 34335 ft | 400 kts | 185° |
| 2026-05-07 20:47 | 41.55785 | 2.74603 | 34101 ft | 392 kts | 185° |
| 2026-05-07 20:47 | 41.53084 | 2.74504 | 33788 ft | 384 kts | 185° |
| 2026-05-07 20:47 | 41.50421 | 2.74400 | 33240 ft | 382 kts | 185° |
| 2026-05-07 20:48 | 41.47763 | 2.74291 | 32701 ft | 380 kts | 184° |
| 2026-05-07 20:48 | 41.45122 | 2.74180 | 32172 ft | 379 kts | 184° |
| 2026-05-07 20:48 | 41.42494 | 2.74069 | 31653 ft | 377 kts | 184° |
| 2026-05-07 20:48 | 41.39908 | 2.73960 | 31152 ft | 376 kts | 183° |
| 2026-05-07 20:49 | 41.37298 | 2.73850 | 30651 ft | 374 kts | 182° |
| 2026-05-07 20:49 | 41.34700 | 2.73741 | 30160 ft | 373 kts | 182° |
| 2026-05-07 20:49 | 41.32111 | 2.73633 | 29606 ft | 371 kts | 182° |
| 2026-05-07 20:49 | 41.29528 | 2.73527 | 29030 ft | 370 kts | 182° |
| 2026-05-07 20:50 | 41.26952 | 2.73421 | 28478 ft | 369 kts | 182° |
| 2026-05-07 20:50 | 41.24413 | 2.73317 | 27946 ft | 368 kts | 182° |
| 2026-05-07 20:50 | 41.21855 | 2.73211 | 27417 ft | 367 kts | 182° |
| 2026-05-07 20:50 | 41.19302 | 2.73106 | 26898 ft | 366 kts | 182° |
| 2026-05-07 20:51 | 41.16756 | 2.73001 | 26394 ft | 365 kts | 182° |
| 2026-05-07 20:51 | 41.14211 | 2.72896 | 25889 ft | 365 kts | 182° |
| 2026-05-07 20:51 | 41.11669 | 2.72792 | 25390 ft | 364 kts | 182° |
| 2026-05-07 20:51 | 41.09138 | 2.72687 | 24919 ft | 363 kts | 182° |
| 2026-05-07 20:52 | 41.06620 | 2.72583 | 24433 ft | 362 kts | 182° |
| 2026-05-07 20:52 | 41.04101 | 2.72480 | 23971 ft | 361 kts | 182° |
| 2026-05-07 20:52 | 41.01616 | 2.72377 | 23490 ft | 361 kts | 182° |
| 2026-05-07 20:52 | 40.99104 | 2.72275 | 22958 ft | 360 kts | 182° |
| 2026-05-07 20:53 | 40.96602 | 2.72173 | 22416 ft | 359 kts | 182° |
| 2026-05-07 20:53 | 40.94096 | 2.72071 | 21888 ft | 359 kts | 182° |
| 2026-05-07 20:53 | 40.91606 | 2.71969 | 21370 ft | 358 kts | 182° |
| 2026-05-07 20:53 | 40.89111 | 2.71866 | 20860 ft | 357 kts | 182° |
| 2026-05-07 20:54 | 40.86631 | 2.71763 | 20360 ft | 356 kts | 182° |
| 2026-05-07 20:54 | 40.84185 | 2.71662 | 19874 ft | 355 kts | 182° |
| 2026-05-07 20:54 | 40.81720 | 2.71560 | 19391 ft | 353 kts | 182° |
| 2026-05-07 20:54 | 40.79267 | 2.71459 | 18915 ft | 352 kts | 182° |
| 2026-05-07 20:55 | 40.76819 | 2.71359 | 18443 ft | 351 kts | 182° |
| 2026-05-07 20:55 | 40.74383 | 2.71259 | 17935 ft | 349 kts | 182° |
| 2026-05-07 20:55 | 40.71954 | 2.71160 | 17399 ft | 348 kts | 182° |
| 2026-05-07 20:55 | 40.69539 | 2.71061 | 16882 ft | 346 kts | 182° |
| 2026-05-07 20:56 | 40.67131 | 2.70963 | 16367 ft | 345 kts | 182° |
| 2026-05-07 20:56 | 40.64739 | 2.70866 | 15863 ft | 343 kts | 182° |
| 2026-05-07 20:56 | 40.62391 | 2.70770 | 15371 ft | 341 kts | 182° |
| 2026-05-07 20:56 | 40.60021 | 2.70673 | 14885 ft | 339 kts | 182° |
| 2026-05-07 20:57 | 40.57674 | 2.70578 | 14402 ft | 338 kts | 182° |
| 2026-05-07 20:57 | 40.55323 | 2.70482 | 13923 ft | 336 kts | 182° |
| 2026-05-07 20:57 | 40.52991 | 2.70421 | 13407 ft | 334 kts | 179° |
| 2026-05-07 20:57 | 40.50679 | 2.70704 | 12878 ft | 333 kts | 169° |
| 2026-05-07 20:58 | 40.48460 | 2.71535 | 12360 ft | 332 kts | 158° |
| 2026-05-07 20:58 | 40.46382 | 2.72840 | 11856 ft | 331 kts | 151° |
| 2026-05-07 20:58 | 40.44367 | 2.74292 | 11349 ft | 330 kts | 150° |
| 2026-05-07 20:58 | 40.42365 | 2.75761 | 10862 ft | 329 kts | 149° |
| 2026-05-07 20:59 | 40.40362 | 2.77228 | 10371 ft | 329 kts | 148° |
| 2026-05-07 20:59 | 40.38362 | 2.78686 | 9888 ft | 328 kts | 148° |
| 2026-05-07 20:59 | 40.36366 | 2.80136 | 9364 ft | 327 kts | 148° |
| 2026-05-07 20:59 | 40.34406 | 2.81556 | 8842 ft | 324 kts | 148° |
| 2026-05-07 21:00 | 40.32437 | 2.82980 | 8328 ft | 321 kts | 148° |
| 2026-05-07 21:00 | 40.30478 | 2.84395 | 7819 ft | 319 kts | 148° |
| 2026-05-07 21:00 | 40.28540 | 2.85794 | 7328 ft | 316 kts | 148° |
| 2026-05-07 21:00 | 40.27267 | 2.86712 | 6996 ft | 315 kts | 148° |
| 2026-05-07 21:01 | 40.24716 | 2.88551 | 6338 ft | 311 kts | 148° |
| 2026-05-07 21:01 | 40.22826 | 2.89911 | 5828 ft | 308 kts | 148° |
| 2026-05-07 21:01 | 40.21590 | 2.90803 | 5496 ft | 306 kts | 147° |
| 2026-05-07 21:01 | 40.19736 | 2.92142 | 4991 ft | 304 kts | 147° |
| 2026-05-07 21:02 | 40.17275 | 2.93917 | 4323 ft | 300 kts | 147° |
| 2026-05-07 21:02 | 40.16069 | 2.94787 | 3987 ft | 298 kts | 147° |
| 2026-05-07 21:02 | 40.14270 | 2.96084 | 3667 ft | 292 kts | 147° |
| 2026-05-07 21:02 | 40.12513 | 2.97348 | 3919 ft | 281 kts | 148° |
| 2026-05-07 21:03 | 40.10870 | 2.98525 | 4000 ft | 259 kts | 147° |
| 2026-05-07 21:03 | 40.09337 | 2.99623 | 4008 ft | 243 kts | 147° |
| 2026-05-07 21:03 | 40.07906 | 3.00650 | 4006 ft | 227 kts | 146° |
| 2026-05-07 21:03 | 40.06535 | 3.01540 | 4002 ft | 214 kts | 153° |
| 2026-05-07 21:04 | 40.05134 | 3.02066 | 4014 ft | 209 kts | 166° |
| 2026-05-07 21:04 | 40.03674 | 3.02148 | 4089 ft | 212 kts | 181° |
| 2026-05-07 21:04 | 40.02205 | 3.01754 | 4656 ft | 221 kts | 193° |
| 2026-05-07 21:04 | 40.00749 | 3.01141 | 5407 ft | 224 kts | 197° |
| 2026-05-07 21:05 | 39.99287 | 3.00484 | 5526 ft | 223 kts | 197° |
| 2026-05-07 21:05 | 39.97803 | 2.99813 | 5530 ft | 226 kts | 198° |
| 2026-05-07 21:05 | 39.96311 | 2.99140 | 5448 ft | 226 kts | 197° |
| 2026-05-07 21:05 | 39.94829 | 2.98475 | 5220 ft | 224 kts | 197° |
| 2026-05-07 21:06 | 39.93353 | 2.97816 | 4997 ft | 224 kts | 197° |
| 2026-05-07 21:06 | 39.91878 | 2.97159 | 5012 ft | 224 kts | 197° |
| 2026-05-07 21:06 | 39.90397 | 2.96501 | 5032 ft | 225 kts | 197° |
| 2026-05-07 21:06 | 39.88921 | 2.95844 | 5008 ft | 225 kts | 196° |
| 2026-05-07 21:07 | 39.87451 | 2.95192 | 4973 ft | 224 kts | 197° |
| 2026-05-07 21:07 | 39.85994 | 2.94536 | 4771 ft | 221 kts | 198° |
| 2026-05-07 21:07 | 39.84582 | 2.93713 | 4610 ft | 220 kts | 208° |
| 2026-05-07 21:07 | 39.83319 | 2.92610 | 4393 ft | 218 kts | 219° |
| 2026-05-07 21:08 | 39.82238 | 2.91198 | 4141 ft | 223 kts | 232° |
| 2026-05-07 21:08 | 39.81316 | 2.89556 | 4186 ft | 223 kts | 235° |
| 2026-05-07 21:08 | 39.80440 | 2.87886 | 4587 ft | 227 kts | 237° |
| 2026-05-07 21:08 | 39.79555 | 2.86186 | 4924 ft | 227 kts | 236° |
| 2026-05-07 21:09 | 39.78665 | 2.84483 | 5008 ft | 227 kts | 236° |
| 2026-05-07 21:09 | 39.77778 | 2.82787 | 5000 ft | 227 kts | 237° |
| 2026-05-07 21:09 | 39.76890 | 2.81093 | 5031 ft | 226 kts | 236° |
| 2026-05-07 21:09 | 39.76014 | 2.79423 | 5011 ft | 220 kts | 236° |
| 2026-05-07 21:10 | 39.75156 | 2.77792 | 5012 ft | 218 kts | 236° |
| 2026-05-07 21:10 | 39.74297 | 2.76158 | 5023 ft | 219 kts | 236° |
| 2026-05-07 21:10 | 39.73447 | 2.74542 | 5039 ft | 219 kts | 236° |
| 2026-05-07 21:10 | 39.72583 | 2.72900 | 5036 ft | 221 kts | 236° |
| 2026-05-07 21:11 | 39.71720 | 2.71263 | 4781 ft | 217 kts | 236° |
| 2026-05-07 21:11 | 39.70886 | 2.69681 | 4626 ft | 211 kts | 235° |
| 2026-05-07 21:11 | 39.69305 | 2.66682 | 4317 ft | 190 kts | 235° |
| 2026-05-07 21:12 | 39.68578 | 2.65304 | 4119 ft | 181 kts | 234° |
| 2026-05-07 21:12 | 39.67879 | 2.63979 | 3787 ft | 176 kts | 235° |
| 2026-05-07 21:12 | 39.67195 | 2.62685 | 3506 ft | 171 kts | 234° |
| 2026-05-07 21:12 | 39.66527 | 2.61417 | 3231 ft | 171 kts | 234° |
| 2026-05-07 21:13 | 39.65857 | 2.60153 | 3081 ft | 169 kts | 234° |
| 2026-05-07 21:13 | 39.65185 | 2.58882 | 3025 ft | 172 kts | 233° |
| 2026-05-07 21:13 | 39.64512 | 2.57611 | 2938 ft | 170 kts | 234° |
| 2026-05-07 21:13 | 39.63843 | 2.56345 | 3020 ft | 171 kts | 234° |
| 2026-05-07 21:14 | 39.63175 | 2.55084 | 3012 ft | 172 kts | 233° |
| 2026-05-07 21:14 | 39.62499 | 2.53812 | 3017 ft | 171 kts | 234° |
| 2026-05-07 21:14 | 39.61816 | 2.52526 | 3015 ft | 170 kts | 235° |
| 2026-05-07 21:14 | 39.61153 | 2.51276 | 3023 ft | 171 kts | 234° |
| 2026-05-07 21:15 | 39.60473 | 2.49993 | 3006 ft | 171 kts | 234° |
| 2026-05-07 21:15 | 39.59810 | 2.48740 | 3010 ft | 170 kts | 234° |
| 2026-05-07 21:15 | 39.59134 | 2.47469 | 3022 ft | 175 kts | 233° |
| 2026-05-07 21:15 | 39.58429 | 2.46146 | 3022 ft | 180 kts | 234° |
| 2026-05-07 21:16 | 39.57701 | 2.44820 | 3014 ft | 181 kts | 230° |
| 2026-05-07 21:16 | 39.56801 | 2.43704 | 2980 ft | 178 kts | 211° |
| 2026-05-07 21:16 | 39.55694 | 2.43054 | 2989 ft | 174 kts | 190° |
| 2026-05-07 21:16 | 39.54491 | 2.42954 | 2884 ft | 177 kts | 167° |
| 2026-05-07 21:17 | 39.53322 | 2.43424 | 2779 ft | 177 kts | 146° |
| 2026-05-07 21:17 | 39.52366 | 2.44396 | 2649 ft | 173 kts | 128° |
| 2026-05-07 21:17 | 39.51630 | 2.45628 | 2531 ft | 171 kts | 120° |
| 2026-05-07 21:17 | 39.50954 | 2.46904 | 2406 ft | 170 kts | 121° |
| 2026-05-07 21:18 | 39.50291 | 2.48168 | 2313 ft | 169 kts | 121° |
| 2026-05-07 21:18 | 39.49633 | 2.49411 | 2308 ft | 170 kts | 121° |
| 2026-05-07 21:18 | 39.48960 | 2.50671 | 2295 ft | 170 kts | 120° |
| 2026-05-07 21:18 | 39.48284 | 2.51931 | 2249 ft | 170 kts | 121° |
| 2026-05-07 21:19 | 39.47723 | 2.53287 | 1919 ft | 169 kts | 106° |
| 2026-05-07 21:19 | 39.47538 | 2.54745 | 1951 ft | 164 kts | 83° |
| 2026-05-07 21:19 | 39.47792 | 2.56163 | 1981 ft | 161 kts | 68° |
| 2026-05-07 21:19 | 39.48306 | 2.57457 | 1988 ft | 162 kts | 59° |
| 2026-05-07 21:20 | 39.48882 | 2.58696 | 1990 ft | 163 kts | 59° |
| 2026-05-07 21:20 | 39.49474 | 2.59952 | 1990 ft | 163 kts | 59° |
| 2026-05-07 21:20 | 39.50064 | 2.61205 | 1827 ft | 162 kts | 59° |
| 2026-05-07 21:20 | 39.50652 | 2.62454 | 1600 ft | 162 kts | 59° |
| 2026-05-07 21:21 | 39.51237 | 2.63692 | 1368 ft | 162 kts | 59° |
| 2026-05-07 21:21 | 39.51823 | 2.64935 | 1150 ft | 160 kts | 58° |
| 2026-05-07 21:21 | 39.52393 | 2.66143 | 953 ft | 149 kts | 58° |
| 2026-05-07 21:21 | 39.52910 | 2.67239 | 738 ft | 137 kts | 58° |
| 2026-05-07 21:22 | 39.53411 | 2.68301 | 550 ft | 139 kts | 57° |
| 2026-05-07 21:22 | 39.53914 | 2.69371 | 377 ft | 140 kts | 58° |
| 2026-05-07 21:22 | 39.54422 | 2.70461 | 179 ft | 141 kts | 57° |
| 2026-05-07 21:22 | 39.54920 | 2.71504 | 43 ft | 132 kts | 58° |
| 2026-05-07 21:23 | 39.55330 | 2.72366 | 41 ft | 91 kts | 59° |
| 2026-05-07 21:23 | 39.55572 | 2.72879 | 41 ft | 46 kts | 57° |
| 2026-05-07 21:23 | 39.55709 | 2.73208 | 41 ft | 32 kts | 79° |
| 2026-05-07 21:23 | 39.55719 | 2.73463 | 41 ft | 11 kts | 87° |
| 2026-05-07 21:24 | 39.55703 | 2.73523 | 41 ft | 4 kts | 158° |
| 2026-05-07 21:24 | 39.55693 | 2.73526 | 41 ft | 4 kts | 167° |
| 2026-05-07 21:24 | 39.55637 | 2.73509 | 41 ft | 6 kts | 182° |
| 2026-05-07 21:24 | 39.55606 | 2.73514 | 41 ft | 3 kts | 160° |
| 2026-05-07 21:25 | 39.55597 | 2.73519 | 41 ft | 0 kts | 154° |
| 2026-05-07 21:25 | 39.55562 | 2.73546 | 41 ft | 9 kts | 147° |
| 2026-05-07 21:25 | 39.55518 | 2.73579 | 41 ft | 6 kts | 149° |
| 2026-05-07 21:25 | 39.55492 | 2.73600 | 41 ft | 3 kts | 148° |
| 2026-05-07 21:26 | 39.55429 | 2.73650 | 41 ft | 16 kts | 149° |
| 2026-05-07 21:26 | 39.55344 | 2.73716 | 40 ft | 13 kts | 149° |
| 2026-05-07 21:26 | 39.55276 | 2.73770 | 40 ft | 10 kts | 147° |
| 2026-05-07 21:26 | 39.55223 | 2.73813 | 41 ft | 8 kts | 150° |
| 2026-05-07 21:27 | 39.55171 | 2.73795 | 40 ft | 6 kts | 237° |
| 2026-05-07 21:27 | 39.55178 | 2.73728 | 41 ft | 11 kts | 289° |
| 2026-05-07 21:27 | 39.55157 | 2.73649 | 40 ft | 8 kts | 238° |
| 2026-05-07 21:27 | 39.55110 | 2.73545 | 41 ft | 12 kts | 240° |
| 2026-05-07 21:28 | 39.55070 | 2.73465 | 41 ft | 9 kts | 238° |
| 2026-05-07 21:28 | 39.55034 | 2.73429 | 41 ft | 5 kts | 178° |
| 2026-05-07 21:28 | 39.55013 | 2.73436 | 41 ft | 2 kts | 165° |
| 2026-05-07 21:28 | 39.55002 | 2.73440 | 41 ft | 1 kts | 165° |
| 2026-05-07 21:29 | 39.54999 | 2.73441 | 41 ft | 1 kts | 165° |